Terminal Aerodrome Forecast
Issued by NWS Houston/Galveston, TX

Home | Current Version | Previous Version | Text Only | Print | Product List | Glossary On
Versions: 1 2 3 4 5 6 7 8 9 10 11 12 13 14 15 16 17 18 19 20 21 22 23 24 25 26 27 28 29 30 31 32 33 34 35 36 37 38 39 40
000
FTUS44 KHGX 270553
TAFGLS
TAF
KGLS 270553Z 2706/2806 12009KT P6SM BKN017 BKN027 OVC060
     FM270800 15010KT 5SM BR SCT009 BKN015
     FM271600 16012KT 6SM HZ SCT015 BKN025
      TEMPO 2721/2724 3SM BR BKN008 OVC015
     FM280300 15012KT P6SM BKN005 OVC010=

USA.gov is the U.S. government's official web portal to all federal, state and local government web resources and services.